createdAt,value
2022-12-31T00:01:57.167Z,15.20
2022-12-31T00:03:59.991Z,15.20
2022-12-31T00:06:13.751Z,15.30
2022-12-31T00:08:16.463Z,15.40
2022-12-31T00:10:19.186Z,15.40
2022-12-31T00:12:21.938Z,15.50
2022-12-31T00:14:24.662Z,15.60
2022-12-31T00:16:29.439Z,15.70
2022-12-31T00:18:32.176Z,15.70
2022-12-31T00:20:35.255Z,15.70
2022-12-31T00:22:39.285Z,15.70
2022-12-31T00:24:42.033Z,15.80
2022-12-31T00:26:44.750Z,15.80
2022-12-31T00:28:47.671Z,15.90
2022-12-31T00:30:50.388Z,15.80
2022-12-31T00:32:53.757Z,15.80
2022-12-31T00:34:56.773Z,15.80
2022-12-31T00:36:59.569Z,15.80
2022-12-31T00:39:05.855Z,15.80
2022-12-31T00:41:09.519Z,15.80
2022-12-31T00:43:12.592Z,15.70
2022-12-31T00:45:15.426Z,15.70
2022-12-31T00:47:18.206Z,15.70
2022-12-31T00:49:21.027Z,15.80
2022-12-31T00:51:27.284Z,15.80
2022-12-31T00:53:30.206Z,15.80
2022-12-31T00:55:34.405Z,15.80
2022-12-31T00:57:37.146Z,15.80
2022-12-31T00:59:39.848Z,15.90
2022-12-31T01:01:45.793Z,15.90
2022-12-31T01:03:51.002Z,15.90
2022-12-31T01:05:53.770Z,15.80
2022-12-31T01:07:56.642Z,15.80
2022-12-31T01:09:59.393Z,15.80
2022-12-31T01:12:03.503Z,15.70
2022-12-31T01:14:08.478Z,15.70
2022-12-31T01:16:13.362Z,15.70
2022-12-31T01:18:16.142Z,15.80
2022-12-31T01:20:18.857Z,15.80
2022-12-31T01:22:21.614Z,15.90
2022-12-31T01:24:24.467Z,16.00
2022-12-31T01:26:28.479Z,16.00
2022-12-31T01:28:32.725Z,16.10
2022-12-31T01:30:38.971Z,16.00
2022-12-31T01:32:41.725Z,16.10
2022-12-31T01:34:44.396Z,16.10
2022-12-31T01:36:47.302Z,16.10
2022-12-31T01:38:50.025Z,16.20
2022-12-31T01:40:52.743Z,16.10
2022-12-31T01:42:56.275Z,16.20
2022-12-31T01:45:00.440Z,16.20
2022-12-31T01:47:04.780Z,16.10
2022-12-31T01:49:14.699Z,16.10
2022-12-31T01:51:17.924Z,16.10
2022-12-31T01:53:20.898Z,16.10
2022-12-31T01:55:27.558Z,16.20
2022-12-31T01:57:31.538Z,16.20
2022-12-31T01:59:34.982Z,16.10
2022-12-31T02:01:40.032Z,16.10
2022-12-31T02:03:43.407Z,16.20
2022-12-31T02:05:50.673Z,16.20
2022-12-31T02:07:54.257Z,16.10
2022-12-31T02:09:57.047Z,16.10
2022-12-31T02:11:59.880Z,16.20
2022-12-31T02:14:05.549Z,16.20
2022-12-31T02:16:15.893Z,16.20
2022-12-31T02:18:31.088Z,16.20
2022-12-31T02:21:14.210Z,16.20
2022-12-31T02:23:42.362Z,16.20
2022-12-31T02:26:16.054Z,16.10
2022-12-31T02:28:30.970Z,16.10
2022-12-31T02:30:37.281Z,16.10
2022-12-31T02:33:03.038Z,16.20
2022-12-31T02:35:10.918Z,16.20
2022-12-31T02:37:16.835Z,16.10
2022-12-31T02:39:20.042Z,16.20
2022-12-31T02:41:37.020Z,16.30
2022-12-31T02:43:47.333Z,16.30
2022-12-31T02:46:05.810Z,16.30
2022-12-31T02:48:23.936Z,16.30
2022-12-31T02:50:38.467Z,16.30
2022-12-31T02:52:51.650Z,16.40
2022-12-31T02:54:59.810Z,16.30
2022-12-31T02:57:11.323Z,16.40
2022-12-31T02:59:38.877Z,16.40
2022-12-31T03:02:05.458Z,16.40
2022-12-31T03:04:22.556Z,16.40
2022-12-31T03:06:25.411Z,16.40
2022-12-31T03:08:28.360Z,16.30
2022-12-31T03:10:31.094Z,16.30
2022-12-31T03:12:46.937Z,16.40
2022-12-31T03:14:49.939Z,16.50
2022-12-31T03:16:54.000Z,16.50
2022-12-31T03:19:14.095Z,16.50
2022-12-31T03:21:34.541Z,16.60
2022-12-31T03:23:40.115Z,16.50
2022-12-31T03:25:43.470Z,16.50
2022-12-31T03:27:46.256Z,16.50
2022-12-31T03:29:49.058Z,16.50
2022-12-31T03:31:51.820Z,16.50
2022-12-31T03:33:55.875Z,16.60
2022-12-31T03:35:58.707Z,16.70
2022-12-31T03:38:01.778Z,16.70
2022-12-31T03:40:04.861Z,16.50
2022-12-31T03:42:07.638Z,16.50
2022-12-31T03:44:10.371Z,16.60
2022-12-31T03:46:13.147Z,16.70
2022-12-31T03:48:16.017Z,16.70
2022-12-31T03:50:21.233Z,16.70
2022-12-31T03:52:24.328Z,16.60
2022-12-31T03:54:27.133Z,16.70
2022-12-31T03:56:29.847Z,16.60
2022-12-31T03:58:32.565Z,16.70
2022-12-31T04:00:35.495Z,16.80
2022-12-31T04:02:38.445Z,16.90
2022-12-31T04:04:41.183Z,17.00
2022-12-31T04:06:45.274Z,16.80
2022-12-31T04:08:48.050Z,17.00
2022-12-31T04:10:51.038Z,16.70
2022-12-31T04:12:53.804Z,17.00
2022-12-31T04:14:56.497Z,16.80
2022-12-31T04:16:59.289Z,16.90
2022-12-31T04:19:02.024Z,16.90
2022-12-31T04:21:05.618Z,16.70
2022-12-31T04:23:09.627Z,16.90
2022-12-31T04:25:12.924Z,17.00
2022-12-31T04:27:16.023Z,17.00
2022-12-31T04:29:18.766Z,17.10
2022-12-31T04:31:21.668Z,17.10
2022-12-31T04:33:24.431Z,17.10
2022-12-31T04:35:27.118Z,17.10
2022-12-31T04:37:29.868Z,17.10
2022-12-31T04:39:33.934Z,17.20
2022-12-31T04:41:36.663Z,17.00
2022-12-31T04:43:39.336Z,17.10
2022-12-31T04:45:42.081Z,17.10
2022-12-31T04:47:44.804Z,17.20
2022-12-31T04:49:47.465Z,17.20
2022-12-31T04:51:50.215Z,17.30
2022-12-31T04:53:53.057Z,17.40
2022-12-31T04:55:57.166Z,17.40
2022-12-31T04:57:59.907Z,17.20
2022-12-31T05:00:02.602Z,17.30
2022-12-31T05:02:05.529Z,17.30
2022-12-31T05:04:08.299Z,17.20
2022-12-31T05:06:14.111Z,17.30
2022-12-31T05:08:18.372Z,17.30
2022-12-31T05:10:21.594Z,17.30
2022-12-31T05:12:25.597Z,17.40
2022-12-31T05:14:31.081Z,17.40
2022-12-31T05:16:33.786Z,17.40
2022-12-31T05:18:37.233Z,17.20
2022-12-31T05:20:40.045Z,17.40
2022-12-31T05:22:42.753Z,17.50
2022-12-31T05:24:45.423Z,17.20
2022-12-31T05:26:48.186Z,17.40
2022-12-31T05:28:52.194Z,17.50
2022-12-31T05:30:55.021Z,17.50
2022-12-31T05:32:57.794Z,17.40
2022-12-31T05:35:00.851Z,17.50
2022-12-31T05:37:03.681Z,17.50
2022-12-31T05:39:06.420Z,17.60
2022-12-31T05:41:09.311Z,17.70
2022-12-31T05:43:11.996Z,17.90
2022-12-31T05:45:16.079Z,17.90
2022-12-31T05:47:18.975Z,17.90
2022-12-31T05:49:21.748Z,17.90
2022-12-31T05:51:24.469Z,17.90
2022-12-31T05:53:27.388Z,17.90
2022-12-31T05:55:30.141Z,17.80
2022-12-31T05:57:33.033Z,17.80
2022-12-31T05:59:35.897Z,17.90
2022-12-31T06:01:39.976Z,17.80
2022-12-31T06:03:42.769Z,17.60
2022-12-31T06:05:45.572Z,17.90
2022-12-31T06:07:48.301Z,17.90
2022-12-31T06:09:51.067Z,17.90
2022-12-31T06:11:53.792Z,17.90
2022-12-31T06:13:56.578Z,17.80
2022-12-31T06:15:59.549Z,17.90
2022-12-31T06:18:05.033Z,17.90
2022-12-31T06:20:13.087Z,17.90
2022-12-31T06:22:16.248Z,18.00
2022-12-31T06:24:19.050Z,18.00
2022-12-31T06:26:21.990Z,17.80
2022-12-31T06:28:24.749Z,17.90
2022-12-31T06:30:27.524Z,18.00
2022-12-31T06:32:30.271Z,18.00
2022-12-31T06:34:34.457Z,18.10
2022-12-31T06:36:37.234Z,18.10
2022-12-31T06:38:41.463Z,18.00
2022-12-31T06:40:44.223Z,18.10
2022-12-31T06:42:46.927Z,18.10
2022-12-31T06:44:49.646Z,18.10
2022-12-31T06:46:52.711Z,17.90
2022-12-31T06:48:55.481Z,17.90
2022-12-31T06:51:05.193Z,17.80
2022-12-31T06:53:08.091Z,18.00
2022-12-31T06:55:12.289Z,17.90
2022-12-31T06:57:16.097Z,18.00
2022-12-31T06:59:26.425Z,18.10
2022-12-31T07:01:44.783Z,18.20
2022-12-31T07:03:57.009Z,18.20
2022-12-31T07:06:06.602Z,18.30
2022-12-31T07:08:30.379Z,18.20
2022-12-31T07:10:40.628Z,18.30
2022-12-31T07:13:05.556Z,18.20
2022-12-31T07:15:15.731Z,18.00
2022-12-31T07:17:31.047Z,17.90
2022-12-31T07:19:44.540Z,18.10
2022-12-31T07:21:50.637Z,18.00
2022-12-31T07:23:53.966Z,17.90
2022-12-31T07:26:03.435Z,18.20
2022-12-31T07:28:18.476Z,18.10
2022-12-31T07:30:23.211Z,18.20
2022-12-31T07:32:41.003Z,18.30
2022-12-31T07:34:53.014Z,18.20
2022-12-31T07:37:04.028Z,18.10
2022-12-31T07:39:11.138Z,18.20
2022-12-31T07:41:18.527Z,18.10
2022-12-31T07:43:31.010Z,18.10
2022-12-31T07:45:41.898Z,18.30
2022-12-31T07:47:45.291Z,18.30
2022-12-31T07:49:48.929Z,18.50
2022-12-31T07:51:52.358Z,18.50
2022-12-31T07:53:56.406Z,18.40
2022-12-31T07:56:01.426Z,18.40
2022-12-31T07:58:11.703Z,18.50
2022-12-31T08:00:16.603Z,18.50
2022-12-31T08:02:31.024Z,18.50
2022-12-31T08:04:44.576Z,18.50
2022-12-31T08:06:54.797Z,18.60
2022-12-31T08:09:08.161Z,18.60
2022-12-31T08:11:21.622Z,18.50
2022-12-31T08:13:24.622Z,18.60
2022-12-31T08:15:30.599Z,18.60
2022-12-31T08:17:33.947Z,18.60
2022-12-31T08:19:37.238Z,18.70
2022-12-31T08:21:47.301Z,18.70
2022-12-31T08:24:01.056Z,18.60
2022-12-31T08:26:24.535Z,18.50
2022-12-31T08:28:41.098Z,18.50
2022-12-31T08:30:55.615Z,18.50
2022-12-31T08:33:11.165Z,18.60
2022-12-31T08:35:24.079Z,18.60
2022-12-31T08:37:36.629Z,18.50
2022-12-31T08:39:55.613Z,18.50
2022-12-31T08:42:01.239Z,18.50
2022-12-31T08:44:13.617Z,18.60
2022-12-31T08:46:21.903Z,18.70
2022-12-31T08:48:32.016Z,18.70
2022-12-31T08:50:35.298Z,18.50
2022-12-31T08:52:38.684Z,18.50
2022-12-31T08:54:42.013Z,18.70
2022-12-31T08:56:52.710Z,18.80
2022-12-31T08:59:18.274Z,18.60
2022-12-31T09:01:25.716Z,18.50
2022-12-31T09:03:43.671Z,18.70
2022-12-31T09:05:54.333Z,18.70
2022-12-31T09:08:09.828Z,18.90
2022-12-31T09:10:20.696Z,18.90
2022-12-31T09:12:29.784Z,18.90
2022-12-31T09:14:44.027Z,18.80
2022-12-31T09:16:57.182Z,18.80
2022-12-31T09:18:59.930Z,19.00
2022-12-31T09:21:02.947Z,19.10
2022-12-31T09:23:07.151Z,19.20
2022-12-31T09:25:15.513Z,19.30
2022-12-31T09:27:29.129Z,19.40
2022-12-31T09:29:43.007Z,19.00
2022-12-31T09:31:52.671Z,19.40
2022-12-31T09:34:02.048Z,19.60
2022-12-31T09:36:08.270Z,19.70
2022-12-31T09:38:17.930Z,19.70
2022-12-31T09:40:51.904Z,19.60
2022-12-31T09:43:11.262Z,19.50
2022-12-31T09:45:40.998Z,19.50
2022-12-31T09:48:17.312Z,19.60
2022-12-31T09:50:52.677Z,19.40
2022-12-31T09:53:16.144Z,19.50
2022-12-31T09:55:36.755Z,19.40
2022-12-31T09:57:42.191Z,19.50
2022-12-31T09:59:52.257Z,19.60
2022-12-31T10:02:01.720Z,19.70
2022-12-31T10:04:34.236Z,19.70
2022-12-31T10:06:42.935Z,19.70
2022-12-31T10:09:13.043Z,19.70
2022-12-31T10:11:20.858Z,19.60
2022-12-31T10:13:37.059Z,19.70
2022-12-31T10:16:08.559Z,19.70
2022-12-31T10:18:27.695Z,19.70
2022-12-31T10:20:48.857Z,19.80
2022-12-31T10:23:31.341Z,19.80
2022-12-31T10:25:47.370Z,20.00
2022-12-31T10:27:55.677Z,20.00
2022-12-31T10:30:03.375Z,19.90
2022-12-31T10:32:18.109Z,20.00
2022-12-31T10:34:27.619Z,20.10
2022-12-31T10:36:32.992Z,20.00
2022-12-31T10:38:47.021Z,20.00
2022-12-31T10:41:21.696Z,20.10
2022-12-31T10:44:09.515Z,20.00
2022-12-31T10:46:50.272Z,19.90
2022-12-31T10:49:30.928Z,19.90
2022-12-31T10:52:06.871Z,19.60
2022-12-31T10:54:26.221Z,19.60
2022-12-31T10:56:55.192Z,19.70
2022-12-31T10:59:43.614Z,19.50
2022-12-31T11:01:55.081Z,19.60
2022-12-31T11:04:40.079Z,19.50
2022-12-31T11:07:20.464Z,19.70
2022-12-31T11:09:54.559Z,19.60
2022-12-31T11:12:05.726Z,19.60
2022-12-31T11:14:24.973Z,19.70
2022-12-31T11:16:50.813Z,19.60
2022-12-31T11:19:01.951Z,19.30
2022-12-31T11:21:28.017Z,19.50
2022-12-31T11:23:40.290Z,19.10
2022-12-31T11:25:53.759Z,19.00
2022-12-31T11:28:31.219Z,19.20
2022-12-31T11:30:45.653Z,19.50
2022-12-31T11:32:59.132Z,19.70
2022-12-31T11:35:19.142Z,19.80
2022-12-31T11:37:33.459Z,19.90
2022-12-31T11:39:46.922Z,19.80
2022-12-31T11:41:54.360Z,19.80
2022-12-31T11:44:04.316Z,20.00
2022-12-31T11:46:34.989Z,20.20
2022-12-31T11:48:45.800Z,20.00
2022-12-31T11:50:59.443Z,20.00
2022-12-31T11:53:23.823Z,19.90
2022-12-31T11:55:53.895Z,20.10
2022-12-31T11:58:02.795Z,20.10
2022-12-31T12:00:15.125Z,20.10
2022-12-31T12:02:26.962Z,19.90
2022-12-31T12:04:29.811Z,20.20
2022-12-31T12:06:34.113Z,20.30
2022-12-31T12:08:38.803Z,20.30
2022-12-31T12:10:46.775Z,20.40
2022-12-31T12:12:49.474Z,20.60
2022-12-31T12:14:54.793Z,20.30
2022-12-31T12:17:04.679Z,20.40
2022-12-31T12:19:18.350Z,20.50
2022-12-31T12:21:23.489Z,20.50
2022-12-31T12:23:27.229Z,20.50
2022-12-31T12:25:40.435Z,20.40
2022-12-31T12:27:43.579Z,20.40
2022-12-31T12:29:47.350Z,20.40
2022-12-31T12:31:57.902Z,19.90
2022-12-31T12:34:00.615Z,20.30
2022-12-31T12:36:11.788Z,20.50
2022-12-31T12:38:17.876Z,20.40
2022-12-31T12:40:29.821Z,20.40
2022-12-31T12:42:35.741Z,20.50
2022-12-31T12:44:38.462Z,20.50
2022-12-31T12:46:48.239Z,20.50
2022-12-31T12:48:56.436Z,20.50
2022-12-31T12:51:00.841Z,20.50
2022-12-31T12:53:25.815Z,20.50
2022-12-31T12:55:38.206Z,20.50
2022-12-31T12:57:49.584Z,20.50
2022-12-31T13:00:07.495Z,20.60
2022-12-31T13:02:32.981Z,20.50
2022-12-31T13:04:48.335Z,20.50
2022-12-31T13:07:06.686Z,20.40
2022-12-31T13:09:30.147Z,20.50
2022-12-31T13:11:41.758Z,20.60
2022-12-31T13:13:53.960Z,20.60
2022-12-31T13:16:03.005Z,20.60
2022-12-31T13:18:16.531Z,20.40
2022-12-31T13:20:28.422Z,20.50
2022-12-31T13:22:38.126Z,20.50
2022-12-31T13:24:50.779Z,20.40
2022-12-31T13:26:59.756Z,20.40
2022-12-31T13:29:05.472Z,20.40
2022-12-31T13:31:13.955Z,20.50
2022-12-31T13:33:20.013Z,20.40
2022-12-31T13:35:26.710Z,20.40
2022-12-31T13:37:37.426Z,20.40
2022-12-31T13:39:42.768Z,20.40
2022-12-31T13:41:51.382Z,20.50
2022-12-31T13:44:01.869Z,20.60
2022-12-31T13:46:12.849Z,20.60
2022-12-31T13:48:20.170Z,20.50
2022-12-31T13:50:30.520Z,20.60
2022-12-31T13:52:39.539Z,20.60
2022-12-31T13:54:46.229Z,20.60
2022-12-31T13:56:51.122Z,20.70
2022-12-31T13:58:58.947Z,20.60
2022-12-31T14:01:11.964Z,20.70
2022-12-31T14:03:23.010Z,20.60
2022-12-31T14:05:31.551Z,20.70
2022-12-31T14:07:45.385Z,20.60
2022-12-31T14:09:48.593Z,20.50
2022-12-31T14:12:17.828Z,20.60
2022-12-31T14:14:29.996Z,20.50
2022-12-31T14:16:41.393Z,20.50
2022-12-31T14:18:50.669Z,20.50
2022-12-31T14:21:00.181Z,20.50
2022-12-31T14:23:12.802Z,20.50
2022-12-31T14:25:21.426Z,20.50
2022-12-31T14:27:29.433Z,20.30
2022-12-31T14:29:36.366Z,20.30
2022-12-31T14:31:58.478Z,20.20
2022-12-31T14:34:09.249Z,19.90
2022-12-31T14:36:26.991Z,20.00
2022-12-31T14:38:43.212Z,19.90
2022-12-31T14:40:56.838Z,20.00
2022-12-31T14:43:18.973Z,19.90
2022-12-31T14:45:34.191Z,19.90
2022-12-31T14:47:53.415Z,19.80
2022-12-31T14:50:05.185Z,19.70
2022-12-31T14:52:22.338Z,19.70
2022-12-31T14:54:30.725Z,19.70
2022-12-31T14:56:42.388Z,19.70
2022-12-31T14:58:58.033Z,19.70
2022-12-31T15:01:03.307Z,19.60
2022-12-31T15:03:23.112Z,19.70
2022-12-31T15:05:28.083Z,19.60
2022-12-31T15:07:40.684Z,19.60
2022-12-31T15:10:08.018Z,19.60
2022-12-31T15:12:24.695Z,19.60
2022-12-31T15:14:46.512Z,19.50
2022-12-31T15:16:58.718Z,19.50
2022-12-31T15:19:22.784Z,19.60
2022-12-31T15:21:37.798Z,19.70
2022-12-31T15:23:43.726Z,19.60
2022-12-31T15:25:50.048Z,19.60
2022-12-31T15:27:53.485Z,19.50
2022-12-31T15:29:56.554Z,19.50
2022-12-31T15:32:02.177Z,19.40
2022-12-31T15:34:08.510Z,19.40
2022-12-31T15:36:15.112Z,19.40
2022-12-31T15:38:34.650Z,19.40
2022-12-31T15:40:44.666Z,19.40
2022-12-31T15:42:51.426Z,19.30
2022-12-31T15:45:00.135Z,19.10
2022-12-31T15:47:10.068Z,19.10
2022-12-31T15:49:19.241Z,19.10
2022-12-31T15:51:26.654Z,19.10
2022-12-31T15:53:33.245Z,19.00
2022-12-31T15:55:42.352Z,19.00
2022-12-31T15:57:45.227Z,18.90
2022-12-31T15:59:48.442Z,18.80
2022-12-31T16:01:51.436Z,18.80
2022-12-31T16:03:58.389Z,18.80
2022-12-31T16:06:05.179Z,18.70
2022-12-31T16:08:08.004Z,18.70
2022-12-31T16:10:16.724Z,18.60
2022-12-31T16:12:27.763Z,18.60
2022-12-31T16:14:38.105Z,18.60
2022-12-31T16:16:40.890Z,18.50
2022-12-31T16:18:45.028Z,18.50
2022-12-31T16:20:48.568Z,18.40
2022-12-31T16:22:56.267Z,18.50
2022-12-31T16:25:32.284Z,18.30
2022-12-31T16:27:26.655Z,18.40
2022-12-31T16:29:30.780Z,18.30
2022-12-31T16:31:33.760Z,18.20
2022-12-31T16:33:36.664Z,18.10
2022-12-31T16:35:39.395Z,18.20
2022-12-31T16:37:42.159Z,18.20
2022-12-31T16:40:10.221Z,18.10
2022-12-31T16:42:21.968Z,18.20
2022-12-31T16:44:28.927Z,18.20
2022-12-31T16:46:33.451Z,18.20
2022-12-31T16:48:36.574Z,18.20
2022-12-31T16:50:39.481Z,18.10
2022-12-31T16:52:44.898Z,18.20
2022-12-31T16:54:48.805Z,18.20
2022-12-31T16:56:53.437Z,18.20
2022-12-31T16:59:02.582Z,18.20
2022-12-31T17:01:13.446Z,18.20
2022-12-31T17:03:21.097Z,18.20
2022-12-31T17:05:26.022Z,18.10
2022-12-31T17:07:40.196Z,18.20
2022-12-31T17:09:42.892Z,18.10
2022-12-31T17:11:52.364Z,18.10
2022-12-31T17:13:57.860Z,18.10
2022-12-31T17:16:01.735Z,18.10
2022-12-31T17:18:04.804Z,18.10
2022-12-31T17:20:09.885Z,18.10
2022-12-31T17:22:31.620Z,18.20
2022-12-31T17:24:37.911Z,18.20
2022-12-31T17:26:40.802Z,18.10
2022-12-31T17:28:47.885Z,18.00
2022-12-31T17:30:50.937Z,18.10
2022-12-31T17:32:59.352Z,18.10
2022-12-31T17:35:02.136Z,18.10
2022-12-31T17:37:18.418Z,18.10
2022-12-31T17:39:23.987Z,18.10
2022-12-31T17:41:28.441Z,18.10
2022-12-31T17:43:35.257Z,18.20
2022-12-31T17:45:40.204Z,18.10
2022-12-31T17:47:48.141Z,18.00
2022-12-31T17:49:50.921Z,18.10
2022-12-31T17:51:53.792Z,18.10
2022-12-31T17:53:56.562Z,18.20
2022-12-31T17:56:03.833Z,18.10
2022-12-31T17:58:07.795Z,18.10
2022-12-31T18:00:21.770Z,18.10
2022-12-31T18:02:26.278Z,18.10
2022-12-31T18:04:29.085Z,18.10
2022-12-31T18:06:31.928Z,18.10
2022-12-31T18:08:34.710Z,18.00
2022-12-31T18:10:39.864Z,18.00
2022-12-31T18:12:43.245Z,17.90
2022-12-31T18:14:46.743Z,18.00
2022-12-31T18:16:49.493Z,18.00
2022-12-31T18:18:53.587Z,17.90
2022-12-31T18:20:59.069Z,17.80
2022-12-31T18:23:01.943Z,17.90
2022-12-31T18:25:06.728Z,17.80
2022-12-31T18:27:17.456Z,17.90
2022-12-31T18:29:20.835Z,17.90
2022-12-31T18:31:25.967Z,18.00
2022-12-31T18:33:28.766Z,17.90
2022-12-31T18:36:07.210Z,18.00
2022-12-31T18:37:56.987Z,18.10
2022-12-31T18:39:59.786Z,18.00
2022-12-31T18:42:02.898Z,18.00
2022-12-31T18:44:05.965Z,18.10
2022-12-31T18:46:12.138Z,18.10
2022-12-31T18:48:15.374Z,18.10
2022-12-31T18:50:18.434Z,18.10
2022-12-31T18:52:23.513Z,18.10
2022-12-31T18:54:26.237Z,18.10
2022-12-31T18:56:29.432Z,18.00
2022-12-31T18:58:32.139Z,18.00
2022-12-31T19:00:35.152Z,18.00
2022-12-31T19:02:37.958Z,18.00
2022-12-31T19:04:40.708Z,18.10
2022-12-31T19:06:43.835Z,18.00
2022-12-31T19:08:47.983Z,18.00
2022-12-31T19:10:52.577Z,18.00
2022-12-31T19:12:55.355Z,18.00
2022-12-31T19:14:58.478Z,18.00
2022-12-31T19:19:08.439Z,17.90
2022-12-31T19:21:16.401Z,18.00
2022-12-31T19:23:22.255Z,18.00
2022-12-31T19:25:28.183Z,18.00
2022-12-31T19:27:30.871Z,17.90
2022-12-31T19:29:33.641Z,17.90
2022-12-31T19:31:36.402Z,17.90
2022-12-31T19:33:39.902Z,17.90
2022-12-31T19:35:43.074Z,17.90
2022-12-31T19:37:48.102Z,17.90
2022-12-31T19:39:50.780Z,18.00
2022-12-31T19:41:59.367Z,18.00
2022-12-31T19:44:02.624Z,18.00
2022-12-31T19:46:05.557Z,17.80
2022-12-31T19:48:11.705Z,17.90
2022-12-31T19:50:16.207Z,17.80
2022-12-31T19:52:19.006Z,17.80
2022-12-31T19:54:21.677Z,17.80
2022-12-31T19:56:24.415Z,17.80
2022-12-31T19:58:28.993Z,17.80
2022-12-31T20:00:31.910Z,17.80
2022-12-31T20:02:34.827Z,17.90
2022-12-31T20:04:37.680Z,17.80
2022-12-31T20:06:43.252Z,17.80
2022-12-31T20:08:49.132Z,17.80
2022-12-31T20:10:51.804Z,17.80
2022-12-31T20:12:54.615Z,17.80
2022-12-31T20:14:58.906Z,17.80
2022-12-31T20:17:01.682Z,17.80
2022-12-31T20:19:07.832Z,17.80
2022-12-31T20:21:12.033Z,17.80
2022-12-31T20:23:15.159Z,17.90
2022-12-31T20:25:18.144Z,17.80
2022-12-31T20:27:20.912Z,17.80
2022-12-31T20:29:23.633Z,17.80
2022-12-31T20:31:27.817Z,17.70
2022-12-31T20:33:31.600Z,17.70
2022-12-31T20:35:34.313Z,17.60
2022-12-31T20:37:37.074Z,17.70
2022-12-31T20:39:39.900Z,17.80
2022-12-31T20:41:42.803Z,17.70
2022-12-31T20:43:46.746Z,17.70
2022-12-31T20:45:49.582Z,17.80
2022-12-31T20:47:53.939Z,17.70
2022-12-31T20:50:12.630Z,17.80
2022-12-31T20:52:15.676Z,17.80
2022-12-31T20:54:18.376Z,17.70
2022-12-31T20:56:21.043Z,17.70
2022-12-31T20:58:24.233Z,17.70
2022-12-31T21:00:27.112Z,17.70
2022-12-31T21:02:41.654Z,17.70
2022-12-31T21:04:46.880Z,17.70
2022-12-31T21:06:50.062Z,17.60
2022-12-31T21:08:52.790Z,17.50
2022-12-31T21:10:55.570Z,17.60
2022-12-31T21:12:57.399Z,17.70
2022-12-31T21:15:00.121Z,17.70
2022-12-31T21:17:02.871Z,17.70
2022-12-31T21:19:05.652Z,17.70
2022-12-31T21:21:11.956Z,17.70
2022-12-31T21:23:14.813Z,17.60
2022-12-31T21:25:17.546Z,17.60
2022-12-31T21:27:20.258Z,17.60
2022-12-31T21:29:23.016Z,17.70
2022-12-31T21:31:25.782Z,17.60
2022-12-31T21:33:28.577Z,17.60
2022-12-31T21:35:43.483Z,17.60
2022-12-31T21:37:59.066Z,17.50
2022-12-31T21:40:03.911Z,17.50
2022-12-31T21:42:06.826Z,17.60
2022-12-31T21:44:09.549Z,17.60
2022-12-31T21:46:12.313Z,17.50
2022-12-31T21:48:21.301Z,17.60
2022-12-31T21:50:24.055Z,17.50
2022-12-31T21:52:26.856Z,17.60
2022-12-31T21:54:48.667Z,17.60
2022-12-31T21:56:53.856Z,17.60
2022-12-31T21:59:16.099Z,17.60
2022-12-31T22:01:38.152Z,17.50
2022-12-31T22:03:40.970Z,17.50
2022-12-31T22:05:48.631Z,17.60
2022-12-31T22:07:51.370Z,17.40
2022-12-31T22:09:55.527Z,17.50
2022-12-31T22:11:58.245Z,17.50
2022-12-31T22:14:01.065Z,17.50
2022-12-31T22:16:05.690Z,17.50
2022-12-31T22:18:08.985Z,17.60
2022-12-31T22:20:28.701Z,17.60
2022-12-31T22:22:31.730Z,17.50
2022-12-31T22:24:34.461Z,17.60
2022-12-31T22:26:44.566Z,17.60
2022-12-31T22:28:49.285Z,17.50
2022-12-31T22:30:52.457Z,17.50
2022-12-31T22:32:55.190Z,17.50
2022-12-31T22:34:57.929Z,17.50
2022-12-31T22:37:20.061Z,17.50
2022-12-31T22:39:44.099Z,17.50
2022-12-31T22:41:47.736Z,17.60
2022-12-31T22:44:00.296Z,17.60
2022-12-31T22:46:10.962Z,17.60
2022-12-31T22:48:13.872Z,17.60
2022-12-31T22:50:22.189Z,17.60
2022-12-31T22:52:25.065Z,17.60
2022-12-31T22:54:27.921Z,17.50
2022-12-31T22:56:30.630Z,17.40
2022-12-31T22:58:35.206Z,17.60
2022-12-31T23:00:40.119Z,17.60
2022-12-31T23:02:43.864Z,17.70
2022-12-31T23:04:47.137Z,17.60
2022-12-31T23:06:49.882Z,17.60
2022-12-31T23:09:11.195Z,17.60
2022-12-31T23:11:14.190Z,17.60
2022-12-31T23:13:34.689Z,17.60
2022-12-31T23:15:57.229Z,17.60
2022-12-31T23:18:17.507Z,17.50
2022-12-31T23:20:41.026Z,17.60
2022-12-31T23:23:01.661Z,17.60
2022-12-31T23:25:04.612Z,17.70
2022-12-31T23:27:08.193Z,17.70
2022-12-31T23:29:11.066Z,17.60
2022-12-31T23:31:15.225Z,17.60
2022-12-31T23:33:19.829Z,17.70
2022-12-31T23:35:22.550Z,17.70
2022-12-31T23:37:25.351Z,17.80
2022-12-31T23:39:28.170Z,17.80
2022-12-31T23:41:30.998Z,17.70
2022-12-31T23:43:33.729Z,17.70
2022-12-31T23:45:37.167Z,17.80
2022-12-31T23:47:41.228Z,17.70
2022-12-31T23:49:43.927Z,17.80
2022-12-31T23:51:46.742Z,17.70
2022-12-31T23:53:57.639Z,17.60
2022-12-31T23:56:12.896Z,17.60
2022-12-31T23:58:18.986Z,17.60
